Time;durP1;ratioP1;P1;durP2;ratioP2;P2;SDS_P1;SDS_P2;PMS_P1;PMS_P2;Temp;Humidity;BMP_temperature;BMP_pressure;BME280_temperature;BME280_humidity;BME280_pressure;Samples;Min_cycle;Max_cycle;Signal;HPM_P1;HPM_P2
2022/04/02 00:00:40;;;;;;;16.1;11.8;;;;;;;1.17;100;93629.77;;;;
2022/04/02 00:01:41;;;;;;;16.1;11.8;;;;;;;1.17;100;93629.77;;;;
2022/04/02 00:02:42;;;;;;;16.1;11.8;;;;;;;1.17;100;93629.77;;;;
2022/04/02 00:03:42;;;;;;;16.1;11.8;;;;;;;1.17;100;93629.77;;;;
2022/04/02 00:04:43;;;;;;;16.1;11.8;;;;;;;1.17;100;93629.77;;;;
2022/04/02 00:05:43;;;;;;;16.1;11.8;;;;;;;1.17;100;93629.77;;;;
2022/04/02 00:06:44;;;;;;;16.1;11.8;;;;;;;1.17;100;93629.77;;;;
2022/04/02 00:07:44;;;;;;;15.65;11.65;;;;;;;1.1;100;93624.63;;;;
2022/04/02 00:08:45;;;;;;;15.65;11.65;;;;;;;1.1;100;93624.63;;;;
2022/04/02 00:09:45;;;;;;;15.65;11.65;;;;;;;1.1;100;93624.63;;;;
2022/04/02 00:10:46;;;;;;;15.65;11.65;;;;;;;1.1;100;93624.63;;;;
2022/04/02 00:11:46;;;;;;;15.65;11.65;;;;;;;1.1;100;93624.63;;;;
2022/04/02 00:12:47;;;;;;;15.65;11.65;;;;;;;1.1;100;93624.63;;;;
2022/04/02 00:13:47;;;;;;;15.65;11.65;;;;;;;1.1;100;93624.63;;;;
2022/04/02 00:14:48;;;;;;;15.65;11.65;;;;;;;1.1;100;93624.63;;;;
2022/04/02 00:15:48;;;;;;;15.65;11.65;;;;;;;1.1;100;93624.63;;;;
2022/04/02 00:16:48;;;;;;;15.65;11.65;;;;;;;1.1;100;93624.63;;;;
2022/04/02 00:17:49;;;;;;;18.55;13.2;;;;;;;1.07;100;93615.26;;;;
2022/04/02 00:18:50;;;;;;;18.55;13.2;;;;;;;1.07;100;93615.26;;;;
2022/04/02 00:19:50;;;;;;;18.55;13.2;;;;;;;1.07;100;93615.26;;;;
2022/04/02 00:20:51;;;;;;;18.55;13.2;;;;;;;1.07;100;93615.26;;;;
2022/04/02 00:21:51;;;;;;;18.55;13.2;;;;;;;1.07;100;93615.26;;;;
2022/04/02 00:23:52;;;;;;;18.55;13.2;;;;;;;1.07;100;93615.26;;;;
2022/04/02 00:24:52;;;;;;;18.55;13.2;;;;;;;1.07;100;93615.26;;;;
2022/04/02 00:25:53;;;;;;;18.55;13.2;;;;;;;1.07;100;93615.26;;;;
2022/04/02 00:26:53;;;;;;;18.55;13.2;;;;;;;1.07;100;93615.26;;;;
2022/04/02 00:27:54;;;;;;;18.55;13.2;;;;;;;1.07;100;93615.26;;;;
2022/04/02 00:28:54;;;;;;;17.2;13.15;;;;;;;1.05;100;93611.6;;;;
2022/04/02 00:29:55;;;;;;;17.2;13.15;;;;;;;1.05;100;93611.6;;;;
2022/04/02 00:30:56;;;;;;;17.2;13.15;;;;;;;1.05;100;93611.6;;;;
2022/04/02 00:31:56;;;;;;;17.2;13.15;;;;;;;1.05;100;93611.6;;;;
2022/04/02 00:32:58;;;;;;;17.2;13.15;;;;;;;1.05;100;93611.6;;;;
2022/04/02 00:33:59;;;;;;;17.2;13.15;;;;;;;1.05;100;93611.6;;;;
2022/04/02 00:34:59;;;;;;;17.2;13.15;;;;;;;1.05;100;93611.6;;;;
2022/04/02 00:35:59;;;;;;;17.2;13.15;;;;;;;1.05;100;93611.6;;;;
2022/04/02 00:37:01;;;;;;;17.2;13.15;;;;;;;1.05;100;93611.6;;;;
2022/04/02 00:38:01;;;;;;;17.2;13.15;;;;;;;1.05;100;93611.6;;;;
2022/04/02 00:39:01;;;;;;;17.2;13.15;;;;;;;1.05;100;93611.6;;;;
2022/04/02 00:40:02;;;;;;;18.35;13.55;;;;;;;1.11;100;93614.72;;;;
2022/04/02 00:41:03;;;;;;;18.35;13.55;;;;;;;1.11;100;93614.72;;;;
2022/04/02 00:42:04;;;;;;;18.35;13.55;;;;;;;1.11;100;93614.72;;;;
2022/04/02 00:43:05;;;;;;;18.35;13.55;;;;;;;1.11;100;93614.72;;;;
2022/04/02 00:44:05;;;;;;;18.35;13.55;;;;;;;1.11;100;93614.72;;;;
2022/04/02 00:45:09;;;;;;;18.35;13.55;;;;;;;1.11;100;93614.72;;;;
2022/04/02 00:46:10;;;;;;;18.35;13.55;;;;;;;1.11;100;93614.72;;;;
2022/04/02 00:47:12;;;;;;;18.35;13.55;;;;;;;1.11;100;93614.72;;;;
2022/04/02 00:48:13;;;;;;;18.35;13.55;;;;;;;1.11;100;93614.72;;;;
2022/04/02 00:49:13;;;;;;;18.35;13.55;;;;;;;1.11;100;93614.72;;;;
2022/04/02 00:50:16;;;;;;;19.4;13.6;;;;;;;1.1;100;93613.62;;;;
2022/04/02 00:51:18;;;;;;;19.4;13.6;;;;;;;1.1;100;93613.62;;;;
2022/04/02 00:52:19;;;;;;;19.4;13.6;;;;;;;1.1;100;93613.62;;;;
2022/04/02 00:53:20;;;;;;;19.4;13.6;;;;;;;1.1;100;93613.62;;;;
2022/04/02 00:54:23;;;;;;;19.4;13.6;;;;;;;1.1;100;93613.62;;;;
2022/04/02 00:55:24;;;;;;;19.4;13.6;;;;;;;1.1;100;93613.62;;;;
2022/04/02 00:56:25;;;;;;;19.4;13.6;;;;;;;1.1;100;93613.62;;;;
2022/04/02 00:57:25;;;;;;;19.4;13.6;;;;;;;1.1;100;93613.62;;;;
2022/04/02 00:58:26;;;;;;;19.4;13.6;;;;;;;1.1;100;93613.62;;;;
2022/04/02 00:59:26;;;;;;;19.4;13.6;;;;;;;1.1;100;93613.62;;;;
2022/04/02 01:00:27;;;;;;;19.4;13.6;;;;;;;1.1;100;93613.62;;;;
2022/04/02 01:01:27;;;;;;;18.55;13.65;;;;;;;1.07;100;93609.95;;;;
2022/04/02 01:02:28;;;;;;;18.55;13.65;;;;;;;1.07;100;93609.95;;;;
2022/04/02 01:03:28;;;;;;;18.55;13.65;;;;;;;1.07;100;93609.95;;;;
2022/04/02 01:04:29;;;;;;;18.55;13.65;;;;;;;1.07;100;93609.95;;;;
2022/04/02 01:05:29;;;;;;;18.55;13.65;;;;;;;1.07;100;93609.95;;;;
2022/04/02 01:06:30;;;;;;;18.55;13.65;;;;;;;1.07;100;93609.95;;;;
2022/04/02 01:07:31;;;;;;;18.55;13.65;;;;;;;1.07;100;93609.95;;;;
2022/04/02 01:08:32;;;;;;;18.55;13.65;;;;;;;1.07;100;93609.95;;;;
2022/04/02 01:09:32;;;;;;;18.55;13.65;;;;;;;1.07;100;93609.95;;;;
2022/04/02 01:10:33;;;;;;;18.55;13.65;;;;;;;1.07;100;93609.95;;;;
2022/04/02 01:11:35;;;;;;;18.5;13.05;;;;;;;1.05;100;93608.44;;;;
2022/04/02 01:12:37;;;;;;;18.5;13.05;;;;;;;1.05;100;93608.44;;;;
2022/04/02 01:13:37;;;;;;;18.5;13.05;;;;;;;1.05;100;93608.44;;;;
2022/04/02 01:14:38;;;;;;;18.5;13.05;;;;;;;1.05;100;93608.44;;;;
2022/04/02 01:15:38;;;;;;;18.5;13.05;;;;;;;1.05;100;93608.44;;;;
2022/04/02 01:16:39;;;;;;;18.5;13.05;;;;;;;1.05;100;93608.44;;;;
2022/04/02 01:17:40;;;;;;;18.5;13.05;;;;;;;1.05;100;93608.44;;;;
2022/04/02 01:18:40;;;;;;;18.5;13.05;;;;;;;1.05;100;93608.44;;;;
2022/04/02 01:19:42;;;;;;;18.5;13.05;;;;;;;1.05;100;93608.44;;;;
2022/04/02 01:20:43;;;;;;;18.5;13.05;;;;;;;1.05;100;93608.44;;;;
2022/04/02 01:21:43;;;;;;;18.5;13.05;;;;;;;1.05;100;93608.44;;;;
2022/04/02 01:22:45;;;;;;;17.5;12.9;;;;;;;1.02;100;93609.8;;;;
2022/04/02 01:23:46;;;;;;;17.5;12.9;;;;;;;1.02;100;93609.8;;;;
2022/04/02 01:24:46;;;;;;;17.5;12.9;;;;;;;1.02;100;93609.8;;;;
2022/04/02 01:25:46;;;;;;;17.5;12.9;;;;;;;1.02;100;93609.8;;;;
2022/04/02 01:26:47;;;;;;;17.5;12.9;;;;;;;1.02;100;93609.8;;;;
2022/04/02 01:27:47;;;;;;;17.5;12.9;;;;;;;1.02;100;93609.8;;;;
2022/04/02 01:28:53;;;;;;;17.5;12.9;;;;;;;1.02;100;93609.8;;;;
2022/04/02 01:29:55;;;;;;;17.5;12.9;;;;;;;1.02;100;93609.8;;;;
2022/04/02 01:30:56;;;;;;;17.5;12.9;;;;;;;1.02;100;93609.8;;;;
2022/04/02 01:31:56;;;;;;;17.5;12.9;;;;;;;1.02;100;93609.8;;;;
2022/04/02 01:32:57;;;;;;;18.9;13.95;;;;;;;1.02;100;93623.6;;;;
2022/04/02 01:33:58;;;;;;;18.9;13.95;;;;;;;1.02;100;93623.6;;;;
2022/04/02 01:34:59;;;;;;;18.9;13.95;;;;;;;1.02;100;93623.6;;;;
2022/04/02 01:36:00;;;;;;;18.9;13.95;;;;;;;1.02;100;93623.6;;;;
2022/04/02 01:37:02;;;;;;;18.9;13.95;;;;;;;1.02;100;93623.6;;;;
2022/04/02 01:38:03;;;;;;;18.9;13.95;;;;;;;1.02;100;93623.6;;;;
2022/04/02 01:39:04;;;;;;;18.9;13.95;;;;;;;1.02;100;93623.6;;;;
2022/04/02 01:40:05;;;;;;;18.9;13.95;;;;;;;1.02;100;93623.6;;;;
2022/04/02 01:41:07;;;;;;;18.9;13.95;;;;;;;1.02;100;93623.6;;;;
2022/04/02 01:42:08;;;;;;;18.9;13.95;;;;;;;1.02;100;93623.6;;;;
2022/04/02 01:43:09;;;;;;;18.9;13.95;;;;;;;1.02;100;93623.6;;;;
2022/04/02 01:44:09;;;;;;;20.1;14.15;;;;;;;1.06;100;93623.88;;;;
2022/04/02 01:45:10;;;;;;;20.1;14.15;;;;;;;1.06;100;93623.88;;;;
2022/04/02 01:46:13;;;;;;;20.1;14.15;;;;;;;1.06;100;93623.88;;;;
2022/04/02 01:47:14;;;;;;;20.1;14.15;;;;;;;1.06;100;93623.88;;;;
2022/04/02 01:48:15;;;;;;;20.1;14.15;;;;;;;1.06;100;93623.88;;;;
2022/04/02 01:49:15;;;;;;;20.1;14.15;;;;;;;1.06;100;93623.88;;;;
2022/04/02 01:50:17;;;;;;;20.1;14.15;;;;;;;1.06;100;93623.88;;;;
2022/04/02 01:51:18;;;;;;;20.1;14.15;;;;;;;1.06;100;93623.88;;;;
2022/04/02 01:52:18;;;;;;;20.1;14.15;;;;;;;1.06;100;93623.88;;;;
2022/04/02 01:53:20;;;;;;;20.1;14.15;;;;;;;1.06;100;93623.88;;;;
2022/04/02 01:54:22;;;;;;;20.75;13.95;;;;;;;1.11;100;93628.01;;;;
2022/04/02 01:55:22;;;;;;;20.75;13.95;;;;;;;1.11;100;93628.01;;;;
2022/04/02 01:56:23;;;;;;;20.75;13.95;;;;;;;1.11;100;93628.01;;;;
2022/04/02 01:57:23;;;;;;;20.75;13.95;;;;;;;1.11;100;93628.01;;;;
2022/04/02 01:58:23;;;;;;;20.75;13.95;;;;;;;1.11;100;93628.01;;;;
2022/04/02 01:59:25;;;;;;;20.75;13.95;;;;;;;1.11;100;93628.01;;;;
2022/04/02 02:00:25;;;;;;;20.75;13.95;;;;;;;1.11;100;93628.01;;;;
2022/04/02 02:01:25;;;;;;;20.75;13.95;;;;;;;1.11;100;93628.01;;;;
2022/04/02 02:02:26;;;;;;;20.75;13.95;;;;;;;1.11;100;93628.01;;;;
2022/04/02 02:03:26;;;;;;;20.75;13.95;;;;;;;1.11;100;93628.01;;;;
2022/04/02 02:04:27;;;;;;;20.75;13.95;;;;;;;1.11;100;93628.01;;;;
2022/04/02 02:05:28;;;;;;;18.8;13.05;;;;;;;1.08;100;93634.56;;;;
2022/04/02 02:06:29;;;;;;;18.8;13.05;;;;;;;1.08;100;93634.56;;;;
2022/04/02 02:07:30;;;;;;;18.8;13.05;;;;;;;1.08;100;93634.56;;;;
2022/04/02 02:08:31;;;;;;;18.8;13.05;;;;;;;1.08;100;93634.56;;;;
2022/04/02 02:09:32;;;;;;;18.8;13.05;;;;;;;1.08;100;93634.56;;;;
2022/04/02 02:10:33;;;;;;;18.8;13.05;;;;;;;1.08;100;93634.56;;;;
2022/04/02 02:11:36;;;;;;;18.8;13.05;;;;;;;1.08;100;93634.56;;;;
2022/04/02 02:12:37;;;;;;;18.8;13.05;;;;;;;1.08;100;93634.56;;;;
2022/04/02 02:13:37;;;;;;;18.8;13.05;;;;;;;1.08;100;93634.56;;;;
2022/04/02 02:14:38;;;;;;;18.8;13.05;;;;;;;1.08;100;93634.56;;;;
2022/04/02 02:15:38;;;;;;;14.15;10.2;;;;;;;1.04;100;93624.06;;;;
2022/04/02 02:16:39;;;;;;;14.15;10.2;;;;;;;1.04;100;93624.06;;;;
2022/04/02 02:17:39;;;;;;;14.15;10.2;;;;;;;1.04;100;93624.06;;;;
2022/04/02 02:18:40;;;;;;;14.15;10.2;;;;;;;1.04;100;93624.06;;;;
2022/04/02 02:19:40;;;;;;;14.15;10.2;;;;;;;1.04;100;93624.06;;;;
2022/04/02 02:20:42;;;;;;;14.15;10.2;;;;;;;1.04;100;93624.06;;;;
2022/04/02 02:21:42;;;;;;;14.15;10.2;;;;;;;1.04;100;93624.06;;;;
2022/04/02 02:22:43;;;;;;;14.15;10.2;;;;;;;1.04;100;93624.06;;;;
2022/04/02 02:23:45;;;;;;;14.15;10.2;;;;;;;1.04;100;93624.06;;;;
2022/04/02 02:24:45;;;;;;;14.15;10.2;;;;;;;1.04;100;93624.06;;;;
2022/04/02 02:25:46;;;;;;;14.15;10.2;;;;;;;1.04;100;93624.06;;;;
2022/04/02 02:26:46;;;;;;;17.4;11.55;;;;;;;0.99;100;93643.43;;;;
2022/04/02 02:27:47;;;;;;;17.4;11.55;;;;;;;0.99;100;93643.43;;;;
2022/04/02 02:28:48;;;;;;;17.4;11.55;;;;;;;0.99;100;93643.43;;;;
2022/04/02 02:29:48;;;;;;;17.4;11.55;;;;;;;0.99;100;93643.43;;;;
2022/04/02 02:30:49;;;;;;;17.4;11.55;;;;;;;0.99;100;93643.43;;;;
2022/04/02 02:31:50;;;;;;;17.4;11.55;;;;;;;0.99;100;93643.43;;;;
2022/04/02 02:35:48;;;;;;;17.4;11.55;;;;;;;0.99;100;93643.43;;;;
2022/04/02 02:36:49;;;;;;;17.4;11.55;;;;;;;0.99;100;93643.43;;;;
2022/04/02 02:37:50;;;;;;;18.8;13.3;;;;;;;0.93;100;93639.92;;;;
2022/04/02 02:38:50;;;;;;;18.8;13.3;;;;;;;0.93;100;93639.92;;;;
2022/04/02 02:39:51;;;;;;;18.8;13.3;;;;;;;0.93;100;93639.92;;;;
2022/04/02 02:40:52;;;;;;;18.8;13.3;;;;;;;0.93;100;93639.92;;;;
2022/04/02 02:41:53;;;;;;;18.8;13.3;;;;;;;0.93;100;93639.92;;;;
2022/04/02 02:42:53;;;;;;;18.8;13.3;;;;;;;0.93;100;93639.92;;;;
2022/04/02 02:43:54;;;;;;;18.8;13.3;;;;;;;0.93;100;93639.92;;;;
2022/04/02 02:44:54;;;;;;;18.8;13.3;;;;;;;0.93;100;93639.92;;;;
2022/04/02 02:45:54;;;;;;;18.8;13.3;;;;;;;0.93;100;93639.92;;;;
2022/04/02 02:46:55;;;;;;;18.8;13.3;;;;;;;0.93;100;93639.92;;;;
2022/04/02 02:47:55;;;;;;;21.25;13.3;;;;;;;0.88;100;93644.55;;;;
2022/04/02 02:48:56;;;;;;;21.25;13.3;;;;;;;0.88;100;93644.55;;;;
2022/04/02 02:49:56;;;;;;;21.25;13.3;;;;;;;0.88;100;93644.55;;;;
2022/04/02 02:50:57;;;;;;;21.25;13.3;;;;;;;0.88;100;93644.55;;;;
2022/04/02 02:51:57;;;;;;;21.25;13.3;;;;;;;0.88;100;93644.55;;;;
2022/04/02 02:52:58;;;;;;;21.25;13.3;;;;;;;0.88;100;93644.55;;;;
2022/04/02 02:53:59;;;;;;;21.25;13.3;;;;;;;0.88;100;93644.55;;;;
2022/04/02 02:54:59;;;;;;;21.25;13.3;;;;;;;0.88;100;93644.55;;;;
2022/04/02 02:56:00;;;;;;;21.25;13.3;;;;;;;0.88;100;93644.55;;;;
2022/04/02 02:57:00;;;;;;;21.25;13.3;;;;;;;0.88;100;93644.55;;;;
2022/04/02 02:58:01;;;;;;;21.25;13.3;;;;;;;0.88;100;93644.55;;;;
2022/04/02 02:59:02;;;;;;;21.85;14.4;;;;;;;0.83;100;93645.31;;;;
2022/04/02 03:00:03;;;;;;;21.85;14.4;;;;;;;0.83;100;93645.31;;;;
2022/04/02 03:01:05;;;;;;;21.85;14.4;;;;;;;0.83;100;93645.31;;;;
2022/04/02 03:02:05;;;;;;;21.85;14.4;;;;;;;0.83;100;93645.31;;;;
2022/04/02 03:03:06;;;;;;;21.85;14.4;;;;;;;0.83;100;93645.31;;;;
2022/04/02 03:04:06;;;;;;;21.85;14.4;;;;;;;0.83;100;93645.31;;;;
2022/04/02 03:05:10;;;;;;;21.85;14.4;;;;;;;0.83;100;93645.31;;;;
2022/04/02 03:06:14;;;;;;;21.85;14.4;;;;;;;0.83;100;93645.31;;;;
2022/04/02 03:07:15;;;;;;;21.85;14.4;;;;;;;0.83;100;93645.31;;;;
2022/04/02 03:08:16;;;;;;;21.85;14.4;;;;;;;0.83;100;93645.31;;;;
2022/04/02 03:09:16;;;;;;;19.05;13.2;;;;;;;0.79;100;93647.71;;;;
2022/04/02 03:10:17;;;;;;;19.05;13.2;;;;;;;0.79;100;93647.71;;;;
2022/04/02 03:11:19;;;;;;;19.05;13.2;;;;;;;0.79;100;93647.71;;;;
2022/04/02 03:12:21;;;;;;;19.05;13.2;;;;;;;0.79;100;93647.71;;;;
2022/04/02 03:13:21;;;;;;;19.05;13.2;;;;;;;0.79;100;93647.71;;;;
2022/04/02 03:14:22;;;;;;;19.05;13.2;;;;;;;0.79;100;93647.71;;;;
2022/04/02 03:15:22;;;;;;;19.05;13.2;;;;;;;0.79;100;93647.71;;;;
2022/04/02 03:16:23;;;;;;;19.05;13.2;;;;;;;0.79;100;93647.71;;;;
2022/04/02 03:17:24;;;;;;;19.05;13.2;;;;;;;0.79;100;93647.71;;;;
2022/04/02 03:18:24;;;;;;;19.05;13.2;;;;;;;0.79;100;93647.71;;;;
2022/04/02 03:19:25;;;;;;;19.05;13.2;;;;;;;0.79;100;93647.71;;;;
2022/04/02 03:20:25;;;;;;;20.8;14.5;;;;;;;0.81;100;93649.1;;;;
2022/04/02 03:21:27;;;;;;;20.8;14.5;;;;;;;0.81;100;93649.1;;;;
2022/04/02 03:22:28;;;;;;;20.8;14.5;;;;;;;0.81;100;93649.1;;;;
2022/04/02 03:23:29;;;;;;;20.8;14.5;;;;;;;0.81;100;93649.1;;;;
2022/04/02 03:24:29;;;;;;;20.8;14.5;;;;;;;0.81;100;93649.1;;;;
2022/04/02 03:25:30;;;;;;;20.8;14.5;;;;;;;0.81;100;93649.1;;;;
2022/04/02 03:26:31;;;;;;;20.8;14.5;;;;;;;0.81;100;93649.1;;;;
2022/04/02 03:27:32;;;;;;;20.8;14.5;;;;;;;0.81;100;93649.1;;;;
2022/04/02 03:28:32;;;;;;;20.8;14.5;;;;;;;0.81;100;93649.1;;;;
2022/04/02 03:29:33;;;;;;;20.8;14.5;;;;;;;0.81;100;93649.1;;;;
2022/04/02 03:30:33;;;;;;;21.3;14.55;;;;;;;0.81;100;93654.42;;;;
2022/04/02 03:31:34;;;;;;;21.3;14.55;;;;;;;0.81;100;93654.42;;;;
2022/04/02 03:32:34;;;;;;;21.3;14.55;;;;;;;0.81;100;93654.42;;;;
2022/04/02 03:33:35;;;;;;;21.3;14.55;;;;;;;0.81;100;93654.42;;;;
2022/04/02 03:34:36;;;;;;;21.3;14.55;;;;;;;0.81;100;93654.42;;;;
2022/04/02 03:35:36;;;;;;;21.3;14.55;;;;;;;0.81;100;93654.42;;;;
2022/04/02 03:36:37;;;;;;;21.3;14.55;;;;;;;0.81;100;93654.42;;;;
2022/04/02 03:37:38;;;;;;;21.3;14.55;;;;;;;0.81;100;93654.42;;;;
2022/04/02 03:38:38;;;;;;;21.3;14.55;;;;;;;0.81;100;93654.42;;;;
2022/04/02 03:39:39;;;;;;;21.3;14.55;;;;;;;0.81;100;93654.42;;;;
2022/04/02 03:40:41;;;;;;;21.3;14.55;;;;;;;0.81;100;93654.42;;;;
2022/04/02 03:41:41;;;;;;;21.8;14.9;;;;;;;0.74;100;93655.91;;;;
2022/04/02 03:42:42;;;;;;;21.8;14.9;;;;;;;0.74;100;93655.91;;;;
2022/04/02 03:43:44;;;;;;;21.8;14.9;;;;;;;0.74;100;93655.91;;;;
2022/04/02 03:44:44;;;;;;;21.8;14.9;;;;;;;0.74;100;93655.91;;;;
2022/04/02 03:45:45;;;;;;;21.8;14.9;;;;;;;0.74;100;93655.91;;;;
2022/04/02 03:47:22;;;;;;;21.8;14.9;;;;;;;0.74;100;93655.91;;;;
2022/04/02 03:48:23;;;;;;;21.8;14.9;;;;;;;0.74;100;93655.91;;;;
2022/04/02 03:49:25;;;;;;;21.8;14.9;;;;;;;0.74;100;93655.91;;;;
2022/04/02 03:50:26;;;;;;;21.8;14.9;;;;;;;0.74;100;93655.91;;;;
2022/04/02 03:51:27;;;;;;;21.8;14.9;;;;;;;0.74;100;93655.91;;;;
2022/04/02 03:52:27;;;;;;;21.45;15.15;;;;;;;0.67;100;93662.28;;;;
2022/04/02 03:53:29;;;;;;;21.45;15.15;;;;;;;0.67;100;93662.28;;;;
2022/04/02 03:54:30;;;;;;;21.45;15.15;;;;;;;0.67;100;93662.28;;;;
2022/04/02 03:55:30;;;;;;;21.45;15.15;;;;;;;0.67;100;93662.28;;;;
2022/04/02 03:56:31;;;;;;;21.45;15.15;;;;;;;0.67;100;93662.28;;;;
2022/04/02 03:57:31;;;;;;;21.45;15.15;;;;;;;0.67;100;93662.28;;;;
2022/04/02 03:58:32;;;;;;;21.45;15.15;;;;;;;0.67;100;93662.28;;;;
2022/04/02 03:59:33;;;;;;;21.45;15.15;;;;;;;0.67;100;93662.28;;;;
2022/04/02 04:00:33;;;;;;;21.45;15.15;;;;;;;0.67;100;93662.28;;;;
2022/04/02 04:01:34;;;;;;;21.45;15.15;;;;;;;0.67;100;93662.28;;;;
2022/04/02 04:02:37;;;;;;;21.5;14.7;;;;;;;0.63;100;93670.28;;;;
2022/04/02 04:03:37;;;;;;;21.5;14.7;;;;;;;0.63;100;93670.28;;;;
2022/04/02 04:04:37;;;;;;;21.5;14.7;;;;;;;0.63;100;93670.28;;;;
2022/04/02 04:05:39;;;;;;;21.5;14.7;;;;;;;0.63;100;93670.28;;;;
2022/04/02 04:06:39;;;;;;;21.5;14.7;;;;;;;0.63;100;93670.28;;;;
2022/04/02 04:07:40;;;;;;;21.5;14.7;;;;;;;0.63;100;93670.28;;;;
2022/04/02 04:08:41;;;;;;;21.5;14.7;;;;;;;0.63;100;93670.28;;;;
2022/04/02 04:09:41;;;;;;;21.5;14.7;;;;;;;0.63;100;93670.28;;;;
2022/04/02 04:10:42;;;;;;;21.5;14.7;;;;;;;0.63;100;93670.28;;;;
2022/04/02 04:11:43;;;;;;;21.5;14.7;;;;;;;0.63;100;93670.28;;;;
2022/04/02 04:12:44;;;;;;;21.5;14.7;;;;;;;0.63;100;93670.28;;;;
2022/04/02 04:13:46;;;;;;;19.8;13.45;;;;;;;0.61;100;93685.24;;;;
2022/04/02 04:14:46;;;;;;;19.8;13.45;;;;;;;0.61;100;93685.24;;;;
2022/04/02 04:15:47;;;;;;;19.8;13.45;;;;;;;0.61;100;93685.24;;;;
2022/04/02 04:16:47;;;;;;;19.8;13.45;;;;;;;0.61;100;93685.24;;;;
2022/04/02 04:17:48;;;;;;;19.8;13.45;;;;;;;0.61;100;93685.24;;;;
2022/04/02 04:18:49;;;;;;;19.8;13.45;;;;;;;0.61;100;93685.24;;;;
2022/04/02 04:19:50;;;;;;;19.8;13.45;;;;;;;0.61;100;93685.24;;;;
2022/04/02 04:20:51;;;;;;;19.8;13.45;;;;;;;0.61;100;93685.24;;;;
2022/04/02 04:21:51;;;;;;;19.8;13.45;;;;;;;0.61;100;93685.24;;;;
2022/04/02 04:22:52;;;;;;;19.8;13.45;;;;;;;0.61;100;93685.24;;;;
2022/04/02 04:23:52;;;;;;;18.95;14.05;;;;;;;0.56;100;93693.55;;;;
2022/04/02 04:24:53;;;;;;;18.95;14.05;;;;;;;0.56;100;93693.55;;;;
2022/04/02 04:25:54;;;;;;;18.95;14.05;;;;;;;0.56;100;93693.55;;;;
2022/04/02 04:26:55;;;;;;;18.95;14.05;;;;;;;0.56;100;93693.55;;;;
2022/04/02 04:27:55;;;;;;;18.95;14.05;;;;;;;0.56;100;93693.55;;;;
2022/04/02 04:28:57;;;;;;;18.95;14.05;;;;;;;0.56;100;93693.55;;;;
2022/04/02 04:29:58;;;;;;;18.95;14.05;;;;;;;0.56;100;93693.55;;;;
2022/04/02 04:30:59;;;;;;;18.95;14.05;;;;;;;0.56;100;93693.55;;;;
2022/04/02 04:31:59;;;;;;;18.95;14.05;;;;;;;0.56;100;93693.55;;;;
2022/04/02 04:33:00;;;;;;;18.95;14.05;;;;;;;0.56;100;93693.55;;;;
2022/04/02 04:34:00;;;;;;;18.95;14.05;;;;;;;0.56;100;93693.55;;;;
2022/04/02 04:35:01;;;;;;;20;13;;;;;;;0.48;100;93697.67;;;;
2022/04/02 04:36:02;;;;;;;20;13;;;;;;;0.48;100;93697.67;;;;
2022/04/02 04:37:03;;;;;;;20;13;;;;;;;0.48;100;93697.67;;;;
2022/04/02 04:38:04;;;;;;;20;13;;;;;;;0.48;100;93697.67;;;;
2022/04/02 04:39:04;;;;;;;20;13;;;;;;;0.48;100;93697.67;;;;
2022/04/02 04:40:05;;;;;;;20;13;;;;;;;0.48;100;93697.67;;;;
2022/04/02 04:41:07;;;;;;;20;13;;;;;;;0.48;100;93697.67;;;;
2022/04/02 04:42:07;;;;;;;20;13;;;;;;;0.48;100;93697.67;;;;
2022/04/02 04:43:08;;;;;;;20;13;;;;;;;0.48;100;93697.67;;;;
2022/04/02 04:44:08;;;;;;;20;13;;;;;;;0.48;100;93697.67;;;;
2022/04/02 04:45:09;;;;;;;20;13;;;;;;;0.48;100;93697.67;;;;
2022/04/02 04:46:10;;;;;;;19.8;13.65;;;;;;;0.44;100;93707.58;;;;
2022/04/02 04:47:10;;;;;;;19.8;13.65;;;;;;;0.44;100;93707.58;;;;
2022/04/02 04:48:11;;;;;;;19.8;13.65;;;;;;;0.44;100;93707.58;;;;
2022/04/02 04:49:12;;;;;;;19.8;13.65;;;;;;;0.44;100;93707.58;;;;
2022/04/02 04:50:13;;;;;;;19.8;13.65;;;;;;;0.44;100;93707.58;;;;
2022/04/02 04:51:13;;;;;;;19.8;13.65;;;;;;;0.44;100;93707.58;;;;
2022/04/02 04:52:15;;;;;;;19.8;13.65;;;;;;;0.44;100;93707.58;;;;
2022/04/02 04:53:16;;;;;;;19.8;13.65;;;;;;;0.44;100;93707.58;;;;
2022/04/02 04:54:16;;;;;;;19.8;13.65;;;;;;;0.44;100;93707.58;;;;
2022/04/02 04:55:16;;;;;;;19.8;13.65;;;;;;;0.44;100;93707.58;;;;
2022/04/02 04:56:17;;;;;;;22.45;14.15;;;;;;;0.42;100;93725.97;;;;
2022/04/02 04:57:18;;;;;;;22.45;14.15;;;;;;;0.42;100;93725.97;;;;
2022/04/02 04:58:18;;;;;;;22.45;14.15;;;;;;;0.42;100;93725.97;;;;
2022/04/02 04:59:19;;;;;;;22.45;14.15;;;;;;;0.42;100;93725.97;;;;
2022/04/02 05:00:20;;;;;;;22.45;14.15;;;;;;;0.42;100;93725.97;;;;
2022/04/02 05:01:22;;;;;;;22.45;14.15;;;;;;;0.42;100;93725.97;;;;
2022/04/02 05:02:23;;;;;;;22.45;14.15;;;;;;;0.42;100;93725.97;;;;
2022/04/02 05:03:24;;;;;;;22.45;14.15;;;;;;;0.42;100;93725.97;;;;
2022/04/02 05:04:25;;;;;;;22.45;14.15;;;;;;;0.42;100;93725.97;;;;
2022/04/02 05:05:25;;;;;;;22.45;14.15;;;;;;;0.42;100;93725.97;;;;
2022/04/02 05:06:30;;;;;;;22.45;14.15;;;;;;;0.42;100;93725.97;;;;
2022/04/02 05:07:31;;;;;;;18.55;12.75;;;;;;;0.37;100;93732.84;;;;
2022/04/02 05:08:32;;;;;;;18.55;12.75;;;;;;;0.37;100;93732.84;;;;
2022/04/02 05:09:32;;;;;;;18.55;12.75;;;;;;;0.37;100;93732.84;;;;
2022/04/02 05:10:33;;;;;;;18.55;12.75;;;;;;;0.37;100;93732.84;;;;
2022/04/02 05:11:35;;;;;;;18.55;12.75;;;;;;;0.37;100;93732.84;;;;
2022/04/02 05:12:35;;;;;;;18.55;12.75;;;;;;;0.37;100;93732.84;;;;
2022/04/02 05:13:37;;;;;;;18.55;12.75;;;;;;;0.37;100;93732.84;;;;
2022/04/02 05:14:38;;;;;;;18.55;12.75;;;;;;;0.37;100;93732.84;;;;
2022/04/02 05:15:40;;;;;;;18.55;12.75;;;;;;;0.37;100;93732.84;;;;
2022/04/02 05:16:41;;;;;;;18.55;12.75;;;;;;;0.37;100;93732.84;;;;
2022/04/02 05:17:42;;;;;;;20.1;13.2;;;;;;;0.34;100;93756.22;;;;
2022/04/02 05:18:44;;;;;;;20.1;13.2;;;;;;;0.34;100;93756.22;;;;
2022/04/02 05:19:46;;;;;;;20.1;13.2;;;;;;;0.34;100;93756.22;;;;
2022/04/02 05:20:46;;;;;;;20.1;13.2;;;;;;;0.34;100;93756.22;;;;
2022/04/02 05:21:47;;;;;;;20.1;13.2;;;;;;;0.34;100;93756.22;;;;
2022/04/02 05:22:47;;;;;;;20.1;13.2;;;;;;;0.34;100;93756.22;;;;
2022/04/02 05:23:48;;;;;;;20.1;13.2;;;;;;;0.34;100;93756.22;;;;
2022/04/02 05:24:48;;;;;;;20.1;13.2;;;;;;;0.34;100;93756.22;;;;
2022/04/02 05:25:49;;;;;;;20.1;13.2;;;;;;;0.34;100;93756.22;;;;
2022/04/02 05:26:49;;;;;;;20.1;13.2;;;;;;;0.34;100;93756.22;;;;
2022/04/02 05:27:50;;;;;;;20.1;13.2;;;;;;;0.34;100;93756.22;;;;
2022/04/02 05:28:50;;;;;;;20.7;13.4;;;;;;;0.31;100;93766.03;;;;
2022/04/02 05:29:51;;;;;;;20.7;13.4;;;;;;;0.31;100;93766.03;;;;
2022/04/02 05:30:51;;;;;;;20.7;13.4;;;;;;;0.31;100;93766.03;;;;
2022/04/02 05:31:52;;;;;;;20.7;13.4;;;;;;;0.31;100;93766.03;;;;
2022/04/02 05:32:52;;;;;;;20.7;13.4;;;;;;;0.31;100;93766.03;;;;
2022/04/02 05:33:54;;;;;;;20.7;13.4;;;;;;;0.31;100;93766.03;;;;
2022/04/02 05:34:55;;;;;;;20.7;13.4;;;;;;;0.31;100;93766.03;;;;
2022/04/02 05:35:55;;;;;;;20.7;13.4;;;;;;;0.31;100;93766.03;;;;
2022/04/02 05:36:56;;;;;;;20.7;13.4;;;;;;;0.31;100;93766.03;;;;
2022/04/02 05:37:56;;;;;;;20.7;13.4;;;;;;;0.31;100;93766.03;;;;
2022/04/02 05:38:57;;;;;;;19.35;12.7;;;;;;;0.33;100;93775.43;;;;
2022/04/02 05:39:57;;;;;;;19.35;12.7;;;;;;;0.33;100;93775.43;;;;
2022/04/02 05:40:58;;;;;;;19.35;12.7;;;;;;;0.33;100;93775.43;;;;
2022/04/02 05:41:59;;;;;;;19.35;12.7;;;;;;;0.33;100;93775.43;;;;
2022/04/02 05:42:59;;;;;;;19.35;12.7;;;;;;;0.33;100;93775.43;;;;
2022/04/02 05:44:00;;;;;;;19.35;12.7;;;;;;;0.33;100;93775.43;;;;
2022/04/02 05:45:00;;;;;;;19.35;12.7;;;;;;;0.33;100;93775.43;;;;
2022/04/02 05:46:01;;;;;;;19.35;12.7;;;;;;;0.33;100;93775.43;;;;
2022/04/02 05:47:01;;;;;;;19.35;12.7;;;;;;;0.33;100;93775.43;;;;
2022/04/02 05:48:02;;;;;;;19.35;12.7;;;;;;;0.33;100;93775.43;;;;
2022/04/02 05:49:03;;;;;;;19.35;12.7;;;;;;;0.33;100;93775.43;;;;
2022/04/02 05:50:04;;;;;;;20.1;12.05;;;;;;;0.35;100;93790.23;;;;
2022/04/02 05:51:06;;;;;;;20.1;12.05;;;;;;;0.35;100;93790.23;;;;
2022/04/02 05:52:07;;;;;;;20.1;12.05;;;;;;;0.35;100;93790.23;;;;
2022/04/02 05:53:07;;;;;;;20.1;12.05;;;;;;;0.35;100;93790.23;;;;
2022/04/02 05:54:08;;;;;;;20.1;12.05;;;;;;;0.35;100;93790.23;;;;
2022/04/02 05:55:08;;;;;;;20.1;12.05;;;;;;;0.35;100;93790.23;;;;
2022/04/02 05:56:11;;;;;;;20.1;12.05;;;;;;;0.35;100;93790.23;;;;
2022/04/02 05:57:12;;;;;;;20.1;12.05;;;;;;;0.35;100;93790.23;;;;
2022/04/02 05:58:12;;;;;;;20.1;12.05;;;;;;;0.35;100;93790.23;;;;
2022/04/02 05:59:13;;;;;;;20.1;12.05;;;;;;;0.35;100;93790.23;;;;
2022/04/02 06:00:13;;;;;;;19.5;12.45;;;;;;;0.39;100;93804.21;;;;
2022/04/02 06:01:16;;;;;;;19.5;12.45;;;;;;;0.39;100;93804.21;;;;
2022/04/02 06:02:16;;;;;;;19.5;12.45;;;;;;;0.39;100;93804.21;;;;
2022/04/02 06:03:19;;;;;;;19.5;12.45;;;;;;;0.39;100;93804.21;;;;
2022/04/02 06:04:20;;;;;;;19.5;12.45;;;;;;;0.39;100;93804.21;;;;
2022/04/02 06:05:21;;;;;;;19.5;12.45;;;;;;;0.39;100;93804.21;;;;
2022/04/02 06:06:21;;;;;;;19.5;12.45;;;;;;;0.39;100;93804.21;;;;
2022/04/02 06:07:22;;;;;;;19.5;12.45;;;;;;;0.39;100;93804.21;;;;
2022/04/02 06:08:23;;;;;;;19.5;12.45;;;;;;;0.39;100;93804.21;;;;
2022/04/02 06:09:23;;;;;;;19.5;12.45;;;;;;;0.39;100;93804.21;;;;
2022/04/02 06:10:23;;;;;;;19.5;12.45;;;;;;;0.39;100;93804.21;;;;
2022/04/02 06:11:24;;;;;;;22.85;13.45;;;;;;;0.4;100;93822.25;;;;
2022/04/02 06:12:24;;;;;;;22.85;13.45;;;;;;;0.4;100;93822.25;;;;
2022/04/02 06:13:25;;;;;;;22.85;13.45;;;;;;;0.4;100;93822.25;;;;
2022/04/02 06:14:25;;;;;;;22.85;13.45;;;;;;;0.4;100;93822.25;;;;
2022/04/02 06:15:27;;;;;;;22.85;13.45;;;;;;;0.4;100;93822.25;;;;
2022/04/02 06:16:28;;;;;;;22.85;13.45;;;;;;;0.4;100;93822.25;;;;